Vremea acum in Piatra Olt - Romania

Vrei sa afli care e starea vremii acum in Olt - Romania? Dorim sa iti furnizam starea vremii pentru Olt - Romania. Starea vremii Olt - Romania pentru astazi.

Vremea acum in Piatra Olt

Temperatura: 14.1 °C

Este: Senin
Se simte ca: 13.4 °C
Innorat: 0 %
Precipitatii: 0 %
Presiune atmosferica: 1014 hPa
Umiditate: 77%
Vizibilitate: 10 km
Vantul bate din E cu 11.2 km/h

Evolutia vremii in Piatra Olt pe ore

Ora: 12:00
Senin
Temperatura: 21.4°C
Sansa de precipitatii: 0%
Ora Descriere Temp Se simte Precipitatii Umiditate Vant
00:00Senin14.8°14.7°0%73%E 7.2 KM/H
01:00Senin14.1°13.5°0%76%ENE 10.4 KM/H
02:00Senin13.5°12.6°0%80%ENE 11.2 KM/H
03:00Senin13°12°0%83%ENE 11.2 KM/H
04:00Senin12.5°11.6°0%86%ENE 9.7 KM/H
05:00Senin12.1°11.2°0%87%ENE 10.1 KM/H
06:00Senin11.9°10.7°0%88%ENE 11.2 KM/H
07:00Senin12.4°11.4°0%87%ENE 10.4 KM/H
08:00Senin14.1°13.8°0%77%E 11.2 KM/H
09:00Senin16.6°16.6°0%72%E 10.4 KM/H
10:00Senin18.4°18.4°0%66%ESE 10.1 KM/H
11:00Senin20°20°0%61%ESE 9 KM/H
12:00Senin21.4°21.4°0%56%SE 7.6 KM/H
13:00Senin22.8°24.7°0%51%SSE 6.1 KM/H
14:00Senin23.9°25.1°0%47%SSE 5.4 KM/H
15:00Senin24.7°25.3°0%42%SSE 5 KM/H
16:00Senin25°25.3°0%40%SSE 4.7 KM/H
17:00Senin25°25.2°0%38%SSE 5 KM/H
18:00Senin24.9°25.2°0%38%SSE 5 KM/H
19:00Senin23.8°25.1°0%50%SE 6.8 KM/H
20:00Senin20.8°20.8°0%56%ESE 9 KM/H
21:00Senin18.7°18.7°0%60%ESE 10.4 KM/H
22:00Senin17.4°17.5°0%65%ESE 11.5 KM/H
23:00Senin16.6°16.6°0%70%ESE 11.9 KM/H




tutorials